Skip Navigation LinksHome page > Weather > Current weather Skip Navigation Links

Current Weather

Brize Norton, United Kingdom

For information only: do not use for flight planning or navigation.
Latest weather
Observation time Tuesday, October 19, 2021 11:20 PM BST
Local time Tuesday, October 19, 2021 11:38 PM BST
Flight conditions Instrument Meteorological Conditions
Winds
Wind direction South-Southwest (210°)
Wind speed 10 mph
Visibility 2.8 mi.
Present weather rain
Sky condition
Ceiling 700 ft. broken clouds
Cloud layer few clouds 600 ft.
Cloud layer broken clouds 700 ft.
Temperature 61°F
Dewpoint 59°F
Altimeter 29.68 in.Hg
Derived measurements
Relative humidity 94%
Density altitude 722 ft.
Remarks
Temporarily.
METAR EGVN 192220Z 21009KT 4500 RA FEW006 BKN007 16/15 Q1005 TEMPO 3500 RMK GRN TEMPO YLO1

Settings

Location code

InnerDrive.Weather 4.0.6770.0 Release CLR 4.0.30319.42000
Copyright ©2018 Inner Drive Technology. All rights reserved. Portions Copyright ©1986-2018 David Braverman.

Find weather

Site navigation


Skip Navigation Links

Place info

Page info

PayPal - The safer, easier way to pay online!

Return home.

Copyright ©2021 Inner Drive Technology. Purveyors of fine, hand-crafted computer software. Page printed 2021-10-19T22:38:15 UTC.